Time;durP1;ratioP1;P1;durP2;ratioP2;P2;SDS_P1;SDS_P2;PMS_P1;PMS_P2;Temp;Humidity;BMP_temperature;BMP_pressure;BME280_temperature;BME280_humidity;BME280_pressure;Samples;Min_cycle;Max_cycle;Signal;HPM_P1;HPM_P2
2023/01/18 00:00:04;;;;;;;9.32;4.55;;;;;;;-4.65;100.00;99198.03;5053963;28;20044;-74
2023/01/18 00:02:29;;;;;;;6.80;3.75;;;;;;;-4.66;100.00;99199.81;5053621;28;20037;-73
2023/01/18 00:04:55;;;;;;;8.25;4.30;;;;;;;-4.67;100.00;99205.91;5053487;28;20037;-74
2023/01/18 00:07:20;;;;;;;10.82;4.15;;;;;;;-4.69;100.00;99207.72;5053625;28;20048;-73
2023/01/18 00:09:45;;;;;;;7.15;3.80;;;;;;;-4.73;100.00;99201.03;5035542;28;20111;-73
2023/01/18 00:12:11;;;;;;;6.65;4.22;;;;;;;-4.75;100.00;99196.84;5051786;28;20488;-73
2023/01/18 00:14:36;;;;;;;7.95;4.00;;;;;;;-4.79;100.00;99201.38;5052829;28;20040;-73
2023/01/18 00:17:01;;;;;;;8.18;4.15;;;;;;;-4.81;100.00;99205.78;5053022;28;20485;-74
2023/01/18 00:19:27;;;;;;;9.93;4.20;;;;;;;-4.82;100.00;99206.69;5053432;28;20146;-74
2023/01/18 00:21:54;;;;;;;9.63;4.20;;;;;;;-4.85;100.00;99206.88;5053515;28;20430;-74
2023/01/18 00:24:21;;;;;;;8.05;4.38;;;;;;;-4.82;100.00;99210.16;5051948;28;20033;-73
2023/01/18 00:26:47;;;;;;;11.73;4.22;;;;;;;-4.81;100.00;99211.84;5051512;28;20141;-73
2023/01/18 00:29:13;;;;;;;5.93;3.80;;;;;;;-4.83;100.00;99210.25;5052500;28;20029;-73
2023/01/18 00:31:39;;;;;;;5.80;3.63;;;;;;;-4.86;100.00;99198.25;5052809;28;20033;-74
2023/01/18 00:34:05;;;;;;;6.18;3.88;;;;;;;-4.81;100.00;99216.19;5052914;28;20472;-73
2023/01/18 00:36:31;;;;;;;6.28;3.35;;;;;;;-4.69;100.00;99206.91;5052751;28;20083;-74
2023/01/18 00:38:57;;;;;;;8.52;3.22;;;;;;;-4.46;100.00;99203.06;5052679;28;20036;-74
2023/01/18 00:41:22;;;;;;;7.38;3.40;;;;;;;-4.10;100.00;99202.78;5051999;28;20405;-74
2023/01/18 00:43:48;;;;;;;6.10;2.90;;;;;;;-3.82;100.00;99201.22;5052523;28;20075;-73
2023/01/18 00:46:16;;;;;;;5.30;2.75;;;;;;;-3.65;100.00;99196.81;5052600;28;20097;-73
2023/01/18 00:48:42;;;;;;;3.60;2.47;;;;;;;-3.52;100.00;99191.72;5051517;28;20040;-73
2023/01/18 00:51:11;;;;;;;5.43;2.88;;;;;;;-3.42;100.00;99198.06;5052489;28;20029;-74
2023/01/18 00:53:37;;;;;;;6.78;3.20;;;;;;;-3.19;100.00;99205.34;5052466;28;20032;-73
2023/01/18 00:56:05;;;;;;;7.18;3.05;;;;;;;-2.94;100.00;99205.63;5052149;28;20104;-73
2023/01/18 00:58:31;;;;;;;7.97;3.05;;;;;;;-2.64;100.00;99205.53;5052440;28;20457;-73
2023/01/18 01:00:56;;;;;;;4.78;3.00;;;;;;;-2.41;100.00;99200.66;5052349;28;20029;-74
2023/01/18 01:03:22;;;;;;;5.47;2.72;;;;;;;-2.21;100.00;99200.22;5052392;28;20123;-73
2023/01/18 01:08:31;;;;;;;5.22;2.70;;;;;;;-1.92;100.00;99201.88;5052688;28;20425;-74
2023/01/18 01:11:11;;;;;;;4.85;2.67;;;;;;;-1.76;100.00;99197.34;5052378;28;20029;-76
2023/01/18 01:27:18;;;;;;;7.38;2.63;;;;;;;-1.64;100.00;99198.31;5052182;28;20501;-73
2023/01/18 01:29:43;;;;;;;7.30;3.75;;;;;;;-1.52;100.00;99201.84;5052589;28;20064;-73
2023/01/18 01:32:09;;;;;;;4.50;2.35;;;;;;;-1.42;100.00;99203.78;5051833;28;20112;-73
2023/01/18 01:34:35;;;;;;;8.88;2.80;;;;;;;-1.30;100.00;99201.25;5052290;28;20186;-73
2023/01/18 01:37:01;;;;;;;9.43;3.30;;;;;;;-1.33;100.00;99198.84;5052094;28;20033;-76
2023/01/18 01:39:26;;;;;;;4.82;3.15;;;;;;;-1.37;100.00;99210.44;5052726;28;20517;-74
2023/01/18 01:41:52;;;;;;;10.35;2.53;;;;;;;-1.31;100.00;99205.66;5052917;28;20029;-74
2023/01/18 01:44:22;;;;;;;9.30;2.88;;;;;;;-1.28;100.00;99205.44;5056073;28;20539;-74
2023/01/18 01:46:56;;;;;;;4.75;2.88;;;;;;;-1.33;100.00;99212.75;5056524;28;20036;-73
2023/01/18 01:49:31;;;;;;;5.05;2.45;;;;;;;-1.44;100.00;99208.22;5056288;28;20064;-74
2023/01/18 01:52:09;;;;;;;8.13;2.53;;;;;;;-1.51;100.00;99212.19;5056677;28;20029;-74
2023/01/18 01:55:01;;;;;;;4.32;2.33;;;;;;;-1.56;100.00;99213.44;5056458;28;20036;-74
2023/01/18 01:57:29;;;;;;;;;;;;;;;-1.58;100.00;99210.09;5056389;28;20463;-74
2023/01/18 01:59:58;;;;;;;8.15;2.45;;;;;;;-1.58;100.00;99229.19;5055923;28;19908;-73
2023/01/18 02:02:23;;;;;;;6.90;2.63;;;;;;;-1.63;100.00;99223.44;5055628;28;20033;-73
2023/01/18 02:04:52;;;;;;;7.80;2.90;;;;;;;-1.69;100.00;99223.84;5054487;28;20088;-74
2023/01/18 02:07:19;;;;;;;4.90;2.53;;;;;;;-1.83;100.00;99228.19;5055489;28;20053;-73
2023/01/18 02:09:45;;;;;;;3.88;2.40;;;;;;;-1.99;100.00;99212.69;5055694;28;20102;-73
2023/01/18 02:12:11;;;;;;;4.97;2.40;;;;;;;-2.14;100.00;99218.91;5055835;28;20029;-73
2023/01/18 02:14:36;;;;;;;7.68;2.90;;;;;;;-2.28;100.00;99225.00;5056053;28;20032;-73
2023/01/18 02:17:53;;;;;;;6.80;2.75;;;;;;;-2.46;100.00;99219.16;5055563;28;20033;-73
2023/01/18 02:20:55;;;;;;;5.82;2.67;;;;;;;-2.61;100.00;99220.97;5013487;28;20042;-73
2023/01/18 02:23:33;;;;;;;5.82;2.55;;;;;;;-2.70;100.00;99224.13;5055568;28;20028;-73
2023/01/18 02:26:26;;;;;;;5.13;2.78;;;;;;;-2.73;100.00;99229.50;5055507;28;20021;-73
2023/01/18 02:29:04;;;;;;;7.25;2.67;;;;;;;-2.74;100.00;99230.47;5055797;28;20048;-73
2023/01/18 02:31:42;;;;;;;6.68;3.28;;;;;;;-2.78;100.00;99239.38;5055763;28;20108;-73
2023/01/18 02:34:32;;;;;;;5.30;2.95;;;;;;;-2.88;100.00;99239.94;5055535;28;20458;-73
2023/01/18 02:37:31;;;;;;;5.68;3.25;;;;;;;-2.99;100.00;99249.31;5055230;28;20112;-74
2023/01/18 02:40:26;;;;;;;5.35;3.13;;;;;;;-3.09;100.00;99243.81;5055448;28;20033;-74
2023/01/18 02:48:34;;;;;;;4.53;2.72;;;;;;;-3.11;100.00;99245.69;5055024;28;20492;-74
2023/01/18 02:50:59;;;;;;;5.93;3.20;;;;;;;-2.97;100.00;99250.91;5055264;28;20036;-74
2023/01/18 02:53:25;;;;;;;6.13;2.95;;;;;;;-2.86;100.00;99250.25;5053642;28;20029;-74
2023/01/18 02:56:02;;;;;;;5.70;3.17;;;;;;;-2.77;100.00;99248.88;5054574;28;20082;-74
2023/01/18 02:58:36;;;;;;;8.57;2.92;;;;;;;-2.76;100.00;99253.13;5055256;28;20032;-74
2023/01/18 03:01:07;;;;;;;5.28;3.10;;;;;;;-2.74;100.00;99256.50;5055262;28;20064;-73
2023/01/18 03:03:33;;;;;;;8.03;3.00;;;;;;;-2.75;100.00;99244.41;5054751;28;20036;-74
2023/01/18 03:06:01;;;;;;;6.55;2.85;;;;;;;-2.79;100.00;99243.75;5055005;28;20724;-74
2023/01/18 03:08:47;;;;;;;5.93;2.80;;;;;;;-2.74;100.00;99248.69;5054978;28;20053;-74
2023/01/18 03:11:25;;;;;;;6.68;2.88;;;;;;;-2.74;100.00;99251.28;5054861;28;20040;-74
2023/01/18 03:13:58;;;;;;;7.05;2.95;;;;;;;-2.74;100.00;99244.31;5054978;28;20025;-74
2023/01/18 03:16:30;;;;;;;4.88;2.55;;;;;;;-2.54;100.00;99248.31;5054486;28;20435;-73
2023/01/18 03:19:03;;;;;;;6.03;2.72;;;;;;;-2.22;100.00;99258.47;5054402;28;20457;-73
2023/01/18 03:21:47;;;;;;;4.25;2.55;;;;;;;-2.05;100.00;99252.19;5054844;28;20107;-72
2023/01/18 03:24:15;;;;;;;5.03;2.88;;;;;;;-2.00;100.00;99252.75;5054768;28;20055;-75
2023/01/18 03:26:46;;;;;;;6.60;2.83;;;;;;;-2.02;100.00;99254.59;5054483;28;20044;-73
2023/01/18 03:34:59;;;;;;;3.90;2.05;;;;;;;-2.30;100.00;99255.50;5054658;28;20480;-74
2023/01/18 03:37:36;;;;;;;5.35;2.58;;;;;;;-2.40;100.00;99255.25;5053755;28;20113;-74
2023/01/18 03:40:07;;;;;;;5.78;2.75;;;;;;;-2.50;100.00;99252.38;5054273;28;20033;-74
2023/01/18 03:42:41;;;;;;;6.38;2.55;;;;;;;-2.63;100.00;99256.66;5053939;28;20107;-74
2023/01/18 03:45:26;;;;;;;7.07;2.40;;;;;;;-2.78;100.00;99261.03;5054421;28;20029;-74
2023/01/18 03:47:52;;;;;;;5.55;2.75;;;;;;;-2.92;100.00;99255.84;5054088;28;20025;-74
2023/01/18 03:50:23;;;;;;;6.15;2.70;;;;;;;-3.07;100.00;99258.41;5053833;28;20031;-74
2023/01/18 03:52:54;;;;;;;5.80;2.70;;;;;;;-3.19;100.00;99259.97;5053968;28;20021;-74
2023/01/18 03:55:30;;;;;;;7.70;3.42;;;;;;;-3.30;100.00;99258.94;5054122;28;20339;-74
2023/01/18 03:58:05;;;;;;;4.97;2.67;;;;;;;-3.43;100.00;99262.25;5052909;28;20136;-73
2023/01/18 04:00:30;;;;;;;4.00;2.40;;;;;;;-3.50;100.00;99268.72;5053433;28;20033;-74
2023/01/18 04:02:57;;;;;;;5.63;2.80;;;;;;;-3.58;100.00;99269.16;5053520;28;20100;-75
2023/01/18 04:05:23;;;;;;;7.32;2.67;;;;;;;-3.64;100.00;99274.72;5052145;28;20124;-76
2023/01/18 04:07:49;;;;;;;8.85;3.00;;;;;;;-3.64;100.00;99276.47;5053775;28;20124;-75
2023/01/18 04:10:14;;;;;;;10.45;3.15;;;;;;;-3.65;100.00;99275.63;5054024;28;20484;-74
2023/01/18 04:12:40;;;;;;;8.13;3.67;;;;;;;-3.63;100.00;99267.75;5053771;28;20121;-74
2023/01/18 04:15:05;;;;;;;6.43;2.80;;;;;;;-3.61;100.00;99271.13;5052148;28;20462;-74
2023/01/18 04:17:31;;;;;;;5.65;2.60;;;;;;;-3.57;100.00;99281.25;5053553;28;20103;-74
2023/01/18 04:19:56;;;;;;;4.57;2.40;;;;;;;-3.57;100.00;99278.66;5053353;28;20531;-74
2023/01/18 04:22:21;;;;;;;6.15;3.15;;;;;;;-3.57;100.00;99281.25;5053094;28;20055;-74
2023/01/18 04:24:47;;;;;;;4.20;2.60;;;;;;;-3.56;100.00;99287.28;5053486;28;20033;-74
2023/01/18 04:27:12;;;;;;;6.03;2.78;;;;;;;-3.59;100.00;99284.88;5053917;28;20037;-75
2023/01/18 04:29:37;;;;;;;5.70;2.65;;;;;;;-3.61;100.00;99284.94;5052933;28;20033;-73
2023/01/18 04:32:04;;;;;;;9.00;3.05;;;;;;;-3.59;100.00;99279.66;5052809;28;20521;-75
2023/01/18 04:34:30;;;;;;;3.92;2.45;;;;;;;-3.53;100.00;99283.69;5052815;28;20481;-74
2023/01/18 04:36:55;;;;;;;5.40;2.70;;;;;;;-3.48;100.00;99285.06;5053155;28;20036;-75
2023/01/18 04:39:21;;;;;;;5.47;2.53;;;;;;;-3.43;100.00;99290.03;5053131;28;20120;-73
2023/01/18 04:41:46;;;;;;;5.28;2.35;;;;;;;-3.40;100.00;99293.28;5052981;28;20033;-74
2023/01/18 04:44:12;;;;;;;5.50;2.47;;;;;;;-3.39;100.00;99287.16;5052743;28;20036;-75
2023/01/18 04:46:38;;;;;;;9.23;2.42;;;;;;;-3.36;100.00;99288.72;5051300;28;20029;-74
2023/01/18 04:49:10;;;;;;;6.78;2.30;;;;;;;-3.32;100.00;99285.03;5052945;28;20110;-74
2023/01/18 04:51:37;;;;;;;5.13;2.55;;;;;;;-3.29;100.00;99289.22;5052978;28;20033;-74
2023/01/18 04:54:03;;;;;;;10.35;2.67;;;;;;;-3.29;100.00;99287.47;5052943;28;20033;-75
2023/01/18 04:56:28;;;;;;;10.15;2.67;;;;;;;-3.25;100.00;99286.34;5052628;28;20429;-75
2023/01/18 04:58:54;;;;;;;5.22;2.63;;;;;;;-3.22;100.00;99285.34;5052784;28;20045;-75
2023/01/18 05:01:20;;;;;;;12.38;3.00;;;;;;;-3.20;100.00;99286.09;5052735;28;20040;-75
2023/01/18 05:03:46;;;;;;;6.13;2.95;;;;;;;-3.21;100.00;99284.41;5052879;28;20037;-73
2023/01/18 05:06:14;;;;;;;8.82;2.30;;;;;;;-3.17;100.00;99291.09;5051636;28;20464;-73
2023/01/18 05:08:40;;;;;;;3.17;2.22;;;;;;;-3.11;100.00;99292.53;5053112;28;20128;-74
2023/01/18 05:11:09;;;;;;;4.30;2.67;;;;;;;-3.08;100.00;99298.38;5052681;28;20094;-74
2023/01/18 05:13:34;;;;;;;3.45;2.83;;;;;;;-3.08;100.00;99294.94;5052948;28;20028;-74
2023/01/18 05:16:00;;;;;;;7.30;3.33;;;;;;;-3.08;100.00;99300.97;5034734;28;20072;-74
2023/01/18 05:18:26;;;;;;;6.57;3.00;;;;;;;-3.07;100.00;99307.03;5056230;28;20047;-74
2023/01/18 05:20:52;;;;;;;5.45;3.05;;;;;;;-3.04;100.00;99310.28;5055781;28;20029;-74
2023/01/18 05:23:17;;;;;;;6.90;2.75;;;;;;;-3.00;100.00;99318.75;5057156;28;20446;-74
2023/01/18 05:25:43;;;;;;;5.30;3.03;;;;;;;-3.02;100.00;99315.41;5056657;28;20032;-74
2023/01/18 05:28:09;;;;;;;6.10;2.83;;;;;;;-3.03;100.00;99313.72;5056639;28;20040;-74
2023/01/18 05:30:38;;;;;;;8.52;2.60;;;;;;;-3.07;100.00;99317.44;5056645;28;20032;-75
2023/01/18 05:33:03;;;;;;;3.42;2.67;;;;;;;-3.10;100.00;99317.63;5056015;28;20044;-74
2023/01/18 05:35:30;;;;;;;4.80;2.80;;;;;;;-3.19;100.00;99319.81;5055086;28;20064;-74
2023/01/18 05:37:55;;;;;;;5.80;2.40;;;;;;;-3.21;100.00;99319.09;5056047;28;20033;-73
2023/01/18 05:40:21;;;;;;;5.93;3.10;;;;;;;-3.20;100.00;99322.50;5056265;28;20487;-76
2023/01/18 05:42:46;;;;;;;4.82;2.63;;;;;;;-3.16;100.00;99320.56;5055956;28;20044;-73
2023/01/18 05:45:12;;;;;;;8.60;2.75;;;;;;;-3.14;100.00;99322.16;5056168;28;20029;-74
2023/01/18 05:47:37;;;;;;;7.68;2.85;;;;;;;-3.11;100.00;99326.34;5056186;28;20033;-75
2023/01/18 05:50:03;;;;;;;8.45;3.05;;;;;;;-3.03;100.00;99331.94;5055224;28;20040;-75
2023/01/18 05:52:28;;;;;;;7.57;2.70;;;;;;;-2.95;100.00;99332.34;5055988;28;20061;-74
2023/01/18 05:54:53;;;;;;;5.80;2.67;;;;;;;-2.92;100.00;99326.94;5056223;28;20033;-74
2023/01/18 05:57:19;;;;;;;4.22;3.00;;;;;;;-2.88;100.00;99336.25;5055971;28;20040;-74
2023/01/18 05:59:44;;;;;;;5.60;2.90;;;;;;;-2.88;100.00;99333.66;5055963;28;20451;-73
2023/01/18 06:02:09;;;;;;;8.05;2.88;;;;;;;-2.86;100.00;99336.16;5056030;28;20033;-74
2023/01/18 06:04:35;;;;;;;8.63;2.80;;;;;;;-2.83;100.00;99335.97;5056015;28;20033;-76
2023/01/18 06:07:00;;;;;;;7.07;3.17;;;;;;;-2.81;100.00;99343.69;5055950;28;20494;-74
2023/01/18 06:09:26;;;;;;;4.03;2.13;;;;;;;-2.81;100.00;99351.50;5055604;28;20068;-73
2023/01/18 06:11:51;;;;;;;7.43;2.50;;;;;;;-2.80;100.00;99346.22;5055419;28;20555;-74
2023/01/18 06:14:17;;;;;;;9.25;2.95;;;;;;;-2.76;100.00;99347.72;5055456;28;20037;-74
2023/01/18 06:16:42;;;;;;;5.28;2.38;;;;;;;-2.75;100.00;99351.16;5055882;28;20086;-74
2023/01/18 06:19:07;;;;;;;9.90;2.78;;;;;;;-2.70;100.00;99344.75;5055402;28;20033;-73
2023/01/18 06:21:33;;;;;;;6.43;2.08;;;;;;;-2.57;100.00;99350.03;5055835;28;20029;-73
2023/01/18 06:23:58;;;;;;;4.07;1.80;;;;;;;-2.47;100.00;99346.91;5055529;28;20395;-74
2023/01/18 06:26:23;;;;;;;6.30;1.88;;;;;;;-2.36;100.00;99347.06;5055229;28;20068;-73
2023/01/18 06:28:49;;;;;;;7.93;1.80;;;;;;;-2.22;100.00;99357.50;5055043;28;20389;-74
2023/01/18 06:31:14;;;;;;;7.97;2.00;;;;;;;-2.08;100.00;99361.84;5055478;28;20040;-73
2023/01/18 06:33:40;;;;;;;4.32;1.70;;;;;;;-2.00;100.00;99364.84;5055242;28;20059;-74
2023/01/18 06:36:05;;;;;;;6.45;2.20;;;;;;;-1.95;100.00;99369.75;5054440;28;20036;-74
2023/01/18 06:38:31;;;;;;;5.43;2.13;;;;;;;-1.95;100.00;99364.56;5055340;28;20098;-73
2023/01/18 06:40:57;;;;;;;8.88;2.13;;;;;;;-1.89;100.00;99372.00;5055463;28;20036;-73
2023/01/18 06:43:22;;;;;;;4.68;2.30;;;;;;;-1.83;100.00;99368.16;5055892;28;20029;-73
2023/01/18 06:45:52;;;;;;;5.18;2.08;;;;;;;-1.80;100.00;99371.41;5055210;28;20469;-73
2023/01/18 06:48:17;;;;;;;4.15;2.33;;;;;;;-1.85;100.00;99373.47;5054957;28;20060;-73
2023/01/18 06:50:43;;;;;;;4.40;2.60;;;;;;;-1.90;100.00;99387.72;5055248;28;20084;-73
2023/01/18 06:53:08;;;;;;;5.50;2.92;;;;;;;-1.98;100.00;99388.22;5054335;28;20025;-73
2023/01/18 06:55:33;;;;;;;5.93;2.25;;;;;;;-2.06;100.00;99386.06;5054934;28;20079;-72
2023/01/18 06:58:01;;;;;;;3.75;2.13;;;;;;;-2.11;100.00;99388.09;5055493;28;20033;-74
2023/01/18 07:00:26;;;;;;;9.10;2.70;;;;;;;-2.21;100.00;99387.00;5059132;28;20124;-74
2023/01/18 07:02:53;;;;;;;6.43;3.13;;;;;;;-2.29;100.00;99384.03;5054912;28;20037;-73
2023/01/18 07:05:18;;;;;;;6.75;2.55;;;;;;;-2.35;100.00;99399.09;5054636;28;20492;-73
2023/01/18 07:07:45;;;;;;;5.25;2.53;;;;;;;-2.39;100.00;99404.56;5054619;28;20486;-75
2023/01/18 07:10:11;;;;;;;5.68;3.10;;;;;;;-2.45;100.00;99397.13;5054727;28;20417;-73
2023/01/18 07:12:36;;;;;;;7.55;2.92;;;;;;;-2.45;100.00;99402.34;5054415;28;20063;-74
2023/01/18 07:15:04;;;;;;;9.65;3.50;;;;;;;-2.40;100.00;99408.97;5052514;28;20139;-74
2023/01/18 07:17:30;;;;;;;5.82;3.05;;;;;;;-2.19;100.00;99400.78;5053833;28;20056;-71
2023/01/18 07:19:55;;;;;;;9.80;3.10;;;;;;;-2.06;100.00;99406.94;5052939;28;20036;-74
2023/01/18 07:22:20;;;;;;;9.77;2.92;;;;;;;-2.03;100.00;99416.31;5053823;28;20052;-73
2023/01/18 07:24:46;;;;;;;5.13;2.67;;;;;;;-1.98;100.00;99417.72;5054070;28;20108;-72
2023/01/18 07:27:11;;;;;;;15.45;2.90;;;;;;;-1.92;100.00;99418.28;5053689;28;20083;-75
2023/01/18 07:29:36;;;;;;;6.97;2.33;;;;;;;-1.88;100.00;99423.22;5053887;28;20044;-74
2023/01/18 07:32:02;;;;;;;6.35;2.50;;;;;;;-1.79;100.00;99427.03;5053974;28;20040;-73
2023/01/18 07:34:28;;;;;;;3.60;2.33;;;;;;;-1.68;100.00;99434.19;5053639;28;20037;-73
2023/01/18 07:36:53;;;;;;;9.05;2.15;;;;;;;-1.64;100.00;99426.06;5053702;28;20044;-76
2023/01/18 07:39:19;;;;;;;7.68;3.17;;;;;;;-1.60;100.00;99431.91;5053057;28;20032;-75
2023/01/18 07:41:45;;;;;;;8.27;2.20;;;;;;;-1.53;100.00;99432.38;5054109;28;20048;-77
2023/01/18 07:44:11;;;;;;;4.70;2.60;;;;;;;-1.47;100.00;99437.22;5053540;28;20470;-76
2023/01/18 07:46:36;;;;;;;6.72;2.45;;;;;;;-1.45;100.00;99438.78;5054156;28;20091;-74
2023/01/18 07:49:04;;;;;;;5.75;2.50;;;;;;;-1.47;100.00;99434.59;5054675;28;20037;-75
2023/01/18 07:51:33;;;;;;;7.95;2.20;;;;;;;-1.49;100.00;99446.91;5054023;28;20037;-74
2023/01/18 07:53:59;;;;;;;5.88;1.98;;;;;;;-1.46;100.00;99454.56;5051933;28;20061;-74
2023/01/18 07:56:24;;;;;;;8.27;2.22;;;;;;;-1.38;100.00;99452.28;5053130;28;20155;-73
2023/01/18 07:58:51;;;;;;;4.28;2.30;;;;;;;-1.37;100.00;99458.31;5053545;28;20039;-74
2023/01/18 08:01:19;;;;;;;4.32;2.88;;;;;;;-1.42;100.00;99462.09;5053502;28;20521;-72
2023/01/18 08:03:46;;;;;;;9.27;2.83;;;;;;;-1.54;100.00;99462.84;5053383;28;20039;-74
2023/01/18 08:06:15;;;;;;;5.07;2.78;;;;;;;-1.67;100.00;99457.56;5053295;28;20120;-73
2023/01/18 08:08:41;;;;;;;4.93;2.83;;;;;;;-1.80;100.00;99461.84;5053360;28;20136;-71
2023/01/18 08:11:11;;;;;;;5.38;2.85;;;;;;;-1.91;100.00;99467.72;5052960;28;20097;-72
2023/01/18 08:13:36;;;;;;;4.65;2.60;;;;;;;-1.96;100.00;99472.38;5053303;28;20056;-73
2023/01/18 08:16:05;;;;;;;5.85;2.80;;;;;;;-1.90;100.00;99468.56;5054413;28;20139;-72
2023/01/18 08:18:30;;;;;;;15.65;3.45;;;;;;;-1.83;100.00;99477.69;5061809;28;20477;-72
2023/01/18 08:20:56;;;;;;;8.25;3.13;;;;;;;-1.81;100.00;99479.28;5061974;28;20033;-71
2023/01/18 08:23:22;;;;;;;8.48;3.15;;;;;;;-1.83;100.00;99483.72;5056156;28;20086;-72
2023/01/18 08:25:48;;;;;;;8.90;3.55;;;;;;;-1.82;100.00;99480.19;5059980;28;20418;-71
2023/01/18 08:28:13;;;;;;;4.65;3.03;;;;;;;-1.82;100.00;99493.22;5055344;28;20056;-74
2023/01/18 08:30:42;;;;;;;5.43;3.05;;;;;;;-1.84;100.00;99491.66;5060476;28;20071;-73
2023/01/18 08:33:07;;;;;;;5.72;3.03;;;;;;;-1.86;100.00;99493.53;5060396;28;20033;-71
2023/01/18 08:35:42;;;;;;;6.35;3.10;;;;;;;-1.84;100.00;99500.28;5056747;28;20186;-73
2023/01/18 08:38:08;;;;;;;6.10;3.13;;;;;;;-1.78;100.00;99502.56;5053259;28;20040;-70
2023/01/18 08:40:34;;;;;;;7.50;3.83;;;;;;;-1.68;100.00;99499.38;5052692;28;20033;-74
2023/01/18 08:43:01;;;;;;;9.82;3.75;;;;;;;-1.51;100.00;99511.38;5052830;28;20048;-73
2023/01/18 08:45:27;;;;;;;10.63;3.95;;;;;;;-1.39;100.00;99518.44;5056016;28;20064;-75
2023/01/18 08:48:04;;;;;;;6.75;3.33;;;;;;;-1.15;100.00;99518.69;5053388;28;20129;-72
2023/01/18 08:50:31;;;;;;;6.53;3.58;;;;;;;-0.89;100.00;99516.19;5052725;28;20165;-71
2023/01/18 08:52:58;;;;;;;7.85;3.53;;;;;;;-0.64;100.00;99519.81;5051399;28;20028;-72
2023/01/18 08:55:25;;;;;;;10.40;3.58;;;;;;;-0.49;100.00;99524.06;5052726;28;20056;-73
2023/01/18 08:57:53;;;;;;;8.82;3.55;;;;;;;-0.39;100.00;99530.38;5052705;28;20025;-73
2023/01/18 09:00:19;;;;;;;6.53;3.65;;;;;;;-0.35;100.00;99528.38;5052533;28;20021;-73
2023/01/18 09:02:46;;;;;;;9.05;4.22;;;;;;;-0.26;100.00;99532.16;5052905;28;20048;-74
2023/01/18 09:05:12;;;;;;;8.10;3.47;;;;;;;-0.16;100.00;99538.47;5052584;28;20037;-75
2023/01/18 09:07:37;;;;;;;11.18;3.53;;;;;;;0.10;100.00;99541.91;5052588;28;20060;-74
2023/01/18 09:10:03;;;;;;;6.82;3.58;;;;;;;0.34;100.00;99541.19;5052598;28;20037;-75
2023/01/18 09:12:29;;;;;;;8.50;3.90;;;;;;;0.55;100.00;99536.25;5052594;28;20477;-74
2023/01/18 09:14:54;;;;;;;7.20;3.58;;;;;;;0.76;100.00;99538.31;5052708;28;20105;-76
2023/01/18 09:17:20;;;;;;;5.40;3.20;;;;;;;1.02;100.00;99545.16;5052650;28;20037;-74
2023/01/18 09:19:45;;;;;;;7.53;3.45;;;;;;;1.32;100.00;99549.16;5052607;28;20094;-74
2023/01/18 09:22:11;;;;;;;7.75;3.67;;;;;;;1.52;100.00;99552.09;5052697;28;20108;-82
2023/01/18 09:24:36;;;;;;;10.02;3.72;;;;;;;1.61;100.00;99548.78;5052109;28;20119;-79
2023/01/18 09:27:03;;;;;;;8.60;3.20;;;;;;;1.61;100.00;99542.72;5052742;28;20033;-76
2023/01/18 09:29:29;;;;;;;11.05;3.65;;;;;;;1.57;100.00;99547.38;5053126;28;20037;-80
2023/01/18 09:31:55;;;;;;;5.15;3.30;;;;;;;1.58;100.00;99541.16;5052776;28;20481;-79
2023/01/18 09:34:20;;;;;;;9.25;3.47;;;;;;;1.59;100.00;99541.03;5052179;28;20033;-76
2023/01/18 09:36:50;;;;;;;7.53;3.33;;;;;;;1.54;100.00;99540.56;5053379;28;20029;-77
2023/01/18 09:39:16;;;;;;;7.63;3.60;;;;;;;1.43;100.00;99543.13;5053876;28;20024;-87
2023/01/18 09:41:45;;;;;;;12.52;3.30;;;;;;;1.29;100.00;99541.50;5051461;28;20036;-75
2023/01/18 09:44:38;;;;;;;8.88;3.05;;;;;;;1.11;100.00;99535.81;5052902;28;20128;-79
2023/01/18 09:47:11;;;;;;;8.90;3.60;;;;;;;1.03;100.00;99532.91;5053979;28;20112;-77
2023/01/18 09:49:45;;;;;;;6.60;3.03;;;;;;;1.11;100.00;99533.19;5055921;28;20047;-77
2023/01/18 09:52:54;;;;;;;10.18;3.00;;;;;;;1.48;100.00;99534.91;5055669;28;20029;-79
2023/01/18 09:55:55;;;;;;;8.63;2.97;;;;;;;1.86;100.00;99536.50;5052449;28;20381;-77
2023/01/18 09:58:30;;;;;;;12.88;3.17;;;;;;;2.03;100.00;99536.06;5052256;28;20385;-76
2023/01/18 10:01:04;;;;;;;6.70;2.75;;;;;;;2.05;100.00;99539.41;5052236;28;20110;-79
2023/01/18 10:03:43;;;;;;;6.68;3.08;;;;;;;2.05;100.00;99549.88;5054023;28;20029;-82
2023/01/18 10:06:17;;;;;;;3.97;2.83;;;;;;;2.07;100.00;99547.16;5055803;28;20392;-75
2023/01/18 10:09:09;;;;;;;9.38;2.55;;;;;;;2.14;100.00;99550.16;5055787;28;20162;-80
2023/01/18 10:11:43;;;;;;;11.07;2.70;;;;;;;2.25;100.00;99564.09;5055208;28;20032;-78
2023/01/18 10:14:25;;;;;;;6.20;2.53;;;;;;;2.54;100.00;99568.06;5055534;28;20037;-81
2023/01/18 10:16:59;;;;;;;4.63;2.47;;;;;;;2.79;100.00;99570.50;5056121;28;20040;-76
2023/01/18 10:19:28;;;;;;;12.25;6.05;;;;;;;2.88;100.00;99574.19;5055596;28;20111;-79
2023/01/18 10:22:30;;;;;;;14.57;5.60;;;;;;;2.99;100.00;99570.72;5055618;28;20033;-78
2023/01/18 10:25:13;;;;;;;11.35;4.82;;;;;;;3.18;100.00;99570.91;5053445;28;20373;-77
2023/01/18 10:27:47;;;;;;;7.43;2.80;;;;;;;3.40;100.00;99569.19;5055949;28;20036;-81
2023/01/18 10:30:27;;;;;;;5.97;2.90;;;;;;;3.68;100.00;99572.19;5055405;28;20516;-80
2023/01/18 10:32:57;;;;;;;8.93;2.60;;;;;;;3.85;100.00;99576.91;5055585;28;20032;-77
2023/01/18 10:35:34;;;;;;;5.57;2.72;;;;;;;4.09;100.00;99578.47;5055467;28;20117;-80
2023/01/18 10:38:06;;;;;;;5.60;2.67;;;;;;;4.26;100.00;99581.50;5055568;28;20096;-79
2023/01/18 10:40:33;;;;;;;4.90;2.30;;;;;;;4.36;100.00;99579.72;5055560;28;20097;-77
2023/01/18 10:43:03;;;;;;;4.18;2.70;;;;;;;4.19;100.00;99576.72;5054453;28;20458;-87
2023/01/18 10:45:32;;;;;;;3.83;2.63;;;;;;;3.92;100.00;99579.03;5055419;28;20037;-79
2023/01/18 10:48:31;;;;;;;9.23;2.58;;;;;;;3.87;100.00;99571.53;5055704;28;20029;-82
2023/01/18 10:51:02;;;;;;;3.38;2.50;;;;;;;3.89;100.00;99572.22;5055580;28;20065;-81
2023/01/18 10:53:30;;;;;;;6.63;2.55;;;;;;;4.09;100.00;99572.34;5055022;28;20491;-79
2023/01/18 10:56:08;;;;;;;4.95;3.10;;;;;;;4.22;100.00;99578.28;5055237;28;20033;-78
2023/01/18 10:58:51;;;;;;;5.53;2.58;;;;;;;4.37;100.00;99581.41;5054931;28;20033;-77
2023/01/18 11:01:26;;;;;;;4.03;2.80;;;;;;;4.68;100.00;99586.69;5055429;28;20040;-76
2023/01/18 11:04:03;;;;;;;5.47;2.50;;;;;;;5.09;100.00;99580.47;5054895;28;20037;-75
2023/01/18 11:06:29;;;;;;;6.45;2.90;;;;;;;5.66;100.00;99579.88;5054713;28;20029;-77
2023/01/18 11:08:54;;;;;;;6.70;2.92;;;;;;;6.17;100.00;99575.31;5054339;28;20075;-78
2023/01/18 11:12:32;;;;;;;8.40;3.15;;;;;;;6.48;100.00;99580.38;5054423;28;20037;-77
2023/01/18 11:14:27;;;;;;;13.40;3.30;;;;;;;6.78;100.00;99583.78;5053476;28;20400;-80
2023/01/18 11:17:10;;;;;;;8.18;2.83;;;;;;;6.45;100.00;99583.28;5055207;28;20040;-82
2023/01/18 11:19:37;;;;;;;5.18;2.50;;;;;;;6.13;100.00;99577.38;5054757;28;20078;-80
2023/01/18 11:22:11;;;;;;;12.35;2.90;;;;;;;5.94;100.00;99572.09;5054575;28;20037;-79
2023/01/18 11:24:37;;;;;;;5.78;2.67;;;;;;;6.00;100.00;99582.13;5055583;28;20084;-81
2023/01/18 11:27:10;;;;;;;7.30;2.63;;;;;;;6.01;100.00;99586.44;5055443;28;20047;-83
2023/01/18 11:29:41;;;;;;;6.93;3.15;;;;;;;5.72;100.00;99584.59;5054458;28;20438;-81
2023/01/18 11:32:32;;;;;;;5.30;3.07;;;;;;;5.42;100.00;99585.53;5054572;28;20040;-78
2023/01/18 11:34:58;;;;;;;6.00;2.78;;;;;;;5.19;100.00;99590.22;5053886;28;20043;-83
2023/01/18 11:37:39;;;;;;;5.97;2.97;;;;;;;5.13;100.00;99588.94;5054807;28;20029;-80
2023/01/18 11:40:27;;;;;;;5.78;2.50;;;;;;;5.17;100.00;99595.63;5054361;28;20032;-78
2023/01/18 11:43:18;;;;;;;10.57;3.05;;;;;;;5.11;100.00;99581.16;5053938;28;20496;-81
2023/01/18 11:45:57;;;;;;;9.80;2.88;;;;;;;5.01;100.00;99580.31;5054274;28;20131;-76
2023/01/18 11:48:37;;;;;;;12.00;2.70;;;;;;;4.71;100.00;99587.25;5053242;28;20123;-78
2023/01/18 11:51:16;;;;;;;9.13;2.70;;;;;;;4.54;100.00;99586.09;5053829;28;20040;-77
2023/01/18 11:54:12;;;;;;;4.93;2.47;;;;;;;4.39;100.00;99593.50;5054075;28;20033;-79
2023/01/18 11:56:48;;;;;;;6.80;2.33;;;;;;;4.29;100.00;99591.78;5052944;28;20112;-79
2023/01/18 11:59:29;;;;;;;5.97;2.30;;;;;;;4.33;100.00;99590.53;5052330;28;20465;-79
2023/01/18 12:02:12;;;;;;;10.33;2.53;;;;;;;4.46;100.00;99580.63;5055831;28;20032;-78
2023/01/18 12:04:53;;;;;;;4.07;1.80;;;;;;;4.48;100.00;99588.38;5055324;28;20260;-80
2023/01/18 12:07:33;;;;;;;4.27;1.70;;;;;;;4.47;100.00;99577.03;5054951;28;20119;-79